sensor_id;sensor_type;location;lat;lon;timestamp;P1;durP1;ratioP1;P2;durP2;ratioP2
2570;SDS011;1295;51.130;6.732;2024-02-04T00:00:34;2.00;;;1.90;;
2570;SDS011;1295;51.130;6.732;2024-02-04T00:03:00;2.40;;;2.30;;
2570;SDS011;1295;51.130;6.732;2024-02-04T00:05:26;2.40;;;2.00;;
2570;SDS011;1295;51.130;6.732;2024-02-04T00:07:52;2.40;;;2.30;;
2570;SDS011;1295;51.130;6.732;2024-02-04T00:10:18;2.70;;;2.60;;
2570;SDS011;1295;51.130;6.732;2024-02-04T00:12:44;3.30;;;3.10;;
2570;SDS011;1295;51.130;6.732;2024-02-04T00:15:09;3.10;;;2.90;;
2570;SDS011;1295;51.130;6.732;2024-02-04T00:17:36;3.77;;;3.47;;
2570;SDS011;1295;51.130;6.732;2024-02-04T00:20:02;4.50;;;4.17;;
2570;SDS011;1295;51.130;6.732;2024-02-04T00:22:27;7.03;;;4.93;;
2570;SDS011;1295;51.130;6.732;2024-02-04T00:24:53;4.57;;;4.27;;
2570;SDS011;1295;51.130;6.732;2024-02-04T00:27:18;4.60;;;4.30;;
2570;SDS011;1295;51.130;6.732;2024-02-04T00:29:44;5.23;;;4.93;;
2570;SDS011;1295;51.130;6.732;2024-02-04T00:32:09;5.33;;;4.90;;
2570;SDS011;1295;51.130;6.732;2024-02-04T00:34:35;6.10;;;5.67;;
2570;SDS011;1295;51.130;6.732;2024-02-04T00:37:01;5.73;;;5.33;;
2570;SDS011;1295;51.130;6.732;2024-02-04T00:39:26;6.50;;;5.87;;
2570;SDS011;1295;51.130;6.732;2024-02-04T00:41:52;5.57;;;5.17;;
2570;SDS011;1295;51.130;6.732;2024-02-04T00:44:18;7.17;;;6.67;;
2570;SDS011;1295;51.130;6.732;2024-02-04T00:46:44;7.33;;;6.77;;
2570;SDS011;1295;51.130;6.732;2024-02-04T00:49:10;6.73;;;4.60;;
2570;SDS011;1295;51.130;6.732;2024-02-04T00:51:36;5.70;;;5.30;;
2570;SDS011;1295;51.130;6.732;2024-02-04T00:54:02;6.20;;;5.60;;
2570;SDS011;1295;51.130;6.732;2024-02-04T00:56:28;7.07;;;6.47;;
2570;SDS011;1295;51.130;6.732;2024-02-04T00:58:53;6.00;;;5.60;;
2570;SDS011;1295;51.130;6.732;2024-02-04T01:01:19;6.07;;;5.67;;
2570;SDS011;1295;51.130;6.732;2024-02-04T01:03:45;5.17;;;4.40;;
2570;SDS011;1295;51.130;6.732;2024-02-04T01:06:11;5.20;;;4.87;;
2570;SDS011;1295;51.130;6.732;2024-02-04T01:08:36;6.03;;;5.43;;
2570;SDS011;1295;51.130;6.732;2024-02-04T01:11:02;4.97;;;4.77;;
2570;SDS011;1295;51.130;6.732;2024-02-04T01:13:27;5.17;;;4.70;;
2570;SDS011;1295;51.130;6.732;2024-02-04T01:15:53;4.80;;;4.50;;
2570;SDS011;1295;51.130;6.732;2024-02-04T01:18:19;3.43;;;3.23;;
2570;SDS011;1295;51.130;6.732;2024-02-04T01:20:45;4.63;;;4.33;;
2570;SDS011;1295;51.130;6.732;2024-02-04T01:23:11;4.43;;;4.10;;
2570;SDS011;1295;51.130;6.732;2024-02-04T01:25:37;2.60;;;2.50;;
2570;SDS011;1295;51.130;6.732;2024-02-04T01:28:03;4.83;;;4.20;;
2570;SDS011;1295;51.130;6.732;2024-02-04T01:30:29;3.50;;;3.30;;
2570;SDS011;1295;51.130;6.732;2024-02-04T01:32:55;4.07;;;3.77;;
2570;SDS011;1295;51.130;6.732;2024-02-04T01:35:21;3.67;;;3.47;;
2570;SDS011;1295;51.130;6.732;2024-02-04T01:37:47;3.30;;;3.20;;
2570;SDS011;1295;51.130;6.732;2024-02-04T01:40:13;3.57;;;3.40;;
2570;SDS011;1295;51.130;6.732;2024-02-04T01:42:38;5.23;;;4.80;;
2570;SDS011;1295;51.130;6.732;2024-02-04T01:45:04;3.70;;;3.50;;
2570;SDS011;1295;51.130;6.732;2024-02-04T01:47:41;4.63;;;4.33;;
2570;SDS011;1295;51.130;6.732;2024-02-04T01:50:07;3.43;;;3.33;;
2570;SDS011;1295;51.130;6.732;2024-02-04T01:52:35;5.23;;;4.93;;
2570;SDS011;1295;51.130;6.732;2024-02-04T01:55:00;4.77;;;4.53;;
2570;SDS011;1295;51.130;6.732;2024-02-04T01:57:25;5.23;;;4.93;;
2570;SDS011;1295;51.130;6.732;2024-02-04T01:59:50;5.23;;;5.03;;
2570;SDS011;1295;51.130;6.732;2024-02-04T02:02:16;5.30;;;5.00;;
2570;SDS011;1295;51.130;6.732;2024-02-04T02:04:42;5.07;;;4.80;;
2570;SDS011;1295;51.130;6.732;2024-02-04T02:07:07;4.47;;;4.17;;
2570;SDS011;1295;51.130;6.732;2024-02-04T02:09:33;5.60;;;5.30;;
2570;SDS011;1295;51.130;6.732;2024-02-04T02:12:03;5.17;;;4.87;;
2570;SDS011;1295;51.130;6.732;2024-02-04T02:14:30;5.47;;;5.10;;
2570;SDS011;1295;51.130;6.732;2024-02-04T02:16:56;6.60;;;6.00;;
2570;SDS011;1295;51.130;6.732;2024-02-04T02:19:28;6.67;;;6.13;;
2570;SDS011;1295;51.130;6.732;2024-02-04T02:22:00;4.90;;;4.60;;
2570;SDS011;1295;51.130;6.732;2024-02-04T02:24:31;5.43;;;5.13;;
2570;SDS011;1295;51.130;6.732;2024-02-04T02:26:58;6.80;;;6.30;;
2570;SDS011;1295;51.130;6.732;2024-02-04T02:29:24;7.30;;;6.63;;
2570;SDS011;1295;51.130;6.732;2024-02-04T02:31:50;5.47;;;5.17;;
2570;SDS011;1295;51.130;6.732;2024-02-04T02:34:16;5.07;;;4.70;;
2570;SDS011;1295;51.130;6.732;2024-02-04T02:36:43;5.53;;;5.17;;
2570;SDS011;1295;51.130;6.732;2024-02-04T02:39:09;6.07;;;5.57;;
2570;SDS011;1295;51.130;6.732;2024-02-04T02:41:34;5.50;;;5.17;;
2570;SDS011;1295;51.130;6.732;2024-02-04T02:43:59;6.33;;;5.83;;
2570;SDS011;1295;51.130;6.732;2024-02-04T02:46:25;6.33;;;5.93;;
2570;SDS011;1295;51.130;6.732;2024-02-04T02:48:51;5.53;;;5.13;;
2570;SDS011;1295;51.130;6.732;2024-02-04T02:51:16;7.07;;;5.87;;
2570;SDS011;1295;51.130;6.732;2024-02-04T02:53:42;7.47;;;6.87;;
2570;SDS011;1295;51.130;6.732;2024-02-04T02:56:08;6.83;;;6.07;;
2570;SDS011;1295;51.130;6.732;2024-02-04T02:58:34;7.37;;;6.80;;
2570;SDS011;1295;51.130;6.732;2024-02-04T03:01:15;8.87;;;7.97;;
2570;SDS011;1295;51.130;6.732;2024-02-04T03:03:41;6.57;;;5.93;;
2570;SDS011;1295;51.130;6.732;2024-02-04T03:06:06;7.10;;;6.50;;
2570;SDS011;1295;51.130;6.732;2024-02-04T03:08:32;7.70;;;7.10;;
2570;SDS011;1295;51.130;6.732;2024-02-04T03:10:58;7.07;;;6.40;;
2570;SDS011;1295;51.130;6.732;2024-02-04T03:13:31;7.87;;;7.30;;
2570;SDS011;1295;51.130;6.732;2024-02-04T03:15:57;9.30;;;8.40;;
2570;SDS011;1295;51.130;6.732;2024-02-04T03:18:22;7.40;;;6.90;;
2570;SDS011;1295;51.130;6.732;2024-02-04T03:20:48;8.63;;;7.90;;
2570;SDS011;1295;51.130;6.732;2024-02-04T03:23:13;10.70;;;9.60;;
2570;SDS011;1295;51.130;6.732;2024-02-04T03:25:39;9.73;;;8.80;;
2570;SDS011;1295;51.130;6.732;2024-02-04T03:28:05;7.90;;;7.10;;
2570;SDS011;1295;51.130;6.732;2024-02-04T03:30:30;10.20;;;9.33;;
2570;SDS011;1295;51.130;6.732;2024-02-04T03:32:56;8.30;;;7.40;;
2570;SDS011;1295;51.130;6.732;2024-02-04T03:35:22;13.97;;;10.50;;
2570;SDS011;1295;51.130;6.732;2024-02-04T03:37:47;10.33;;;8.37;;
2570;SDS011;1295;51.130;6.732;2024-02-04T03:40:13;8.03;;;7.23;;
2570;SDS011;1295;51.130;6.732;2024-02-04T03:42:39;11.70;;;10.50;;
2570;SDS011;1295;51.130;6.732;2024-02-04T03:45:05;9.90;;;8.80;;
2570;SDS011;1295;51.130;6.732;2024-02-04T03:47:46;12.43;;;10.30;;
2570;SDS011;1295;51.130;6.732;2024-02-04T03:50:12;10.47;;;8.87;;
2570;SDS011;1295;51.130;6.732;2024-02-04T03:52:37;13.93;;;10.00;;
2570;SDS011;1295;51.130;6.732;2024-02-04T03:55:04;11.53;;;10.33;;
2570;SDS011;1295;51.130;6.732;2024-02-04T03:57:32;9.83;;;8.90;;
2570;SDS011;1295;51.130;6.732;2024-02-04T03:59:56;12.17;;;9.53;;
2570;SDS011;1295;51.130;6.732;2024-02-04T04:02:22;9.90;;;7.80;;
2570;SDS011;1295;51.130;6.732;2024-02-04T04:04:48;11.57;;;10.33;;
2570;SDS011;1295;51.130;6.732;2024-02-04T04:07:14;16.83;;;11.50;;
2570;SDS011;1295;51.130;6.732;2024-02-04T04:09:40;11.27;;;10.03;;
2570;SDS011;1295;51.130;6.732;2024-02-04T04:12:06;15.40;;;12.33;;
2570;SDS011;1295;51.130;6.732;2024-02-04T04:14:32;15.57;;;12.33;;
2570;SDS011;1295;51.130;6.732;2024-02-04T04:16:57;13.57;;;10.93;;
2570;SDS011;1295;51.130;6.732;2024-02-04T04:19:23;12.00;;;10.43;;
2570;SDS011;1295;51.130;6.732;2024-02-04T04:21:48;12.73;;;10.30;;
2570;SDS011;1295;51.130;6.732;2024-02-04T04:24:14;11.87;;;10.30;;
2570;SDS011;1295;51.130;6.732;2024-02-04T04:26:41;13.77;;;11.27;;
2570;SDS011;1295;51.130;6.732;2024-02-04T04:29:07;10.17;;;9.20;;
2570;SDS011;1295;51.130;6.732;2024-02-04T04:31:33;15.60;;;9.60;;
2570;SDS011;1295;51.130;6.732;2024-02-04T04:33:59;9.90;;;9.00;;
2570;SDS011;1295;51.130;6.732;2024-02-04T04:36:25;10.50;;;9.50;;
2570;SDS011;1295;51.130;6.732;2024-02-04T04:38:51;10.20;;;9.20;;
2570;SDS011;1295;51.130;6.732;2024-02-04T04:41:17;10.13;;;8.50;;
2570;SDS011;1295;51.130;6.732;2024-02-04T04:43:43;16.13;;;9.63;;
2570;SDS011;1295;51.130;6.732;2024-02-04T04:46:08;10.60;;;9.40;;
2570;SDS011;1295;51.130;6.732;2024-02-04T04:48:35;10.03;;;8.33;;
2570;SDS011;1295;51.130;6.732;2024-02-04T04:51:15;13.03;;;10.63;;
2570;SDS011;1295;51.130;6.732;2024-02-04T04:53:41;10.97;;;8.70;;
2570;SDS011;1295;51.130;6.732;2024-02-04T04:56:07;15.57;;;9.97;;
2570;SDS011;1295;51.130;6.732;2024-02-04T04:58:35;14.37;;;11.43;;
2570;SDS011;1295;51.130;6.732;2024-02-04T05:01:00;17.13;;;11.50;;
2570;SDS011;1295;51.130;6.732;2024-02-04T05:03:27;16.07;;;10.90;;
2570;SDS011;1295;51.130;6.732;2024-02-04T05:05:52;11.13;;;8.67;;
2570;SDS011;1295;51.130;6.732;2024-02-04T05:08:18;13.27;;;11.07;;
2570;SDS011;1295;51.130;6.732;2024-02-04T05:10:44;13.73;;;11.37;;
2570;SDS011;1295;51.130;6.732;2024-02-04T05:13:10;19.27;;;10.73;;
2570;SDS011;1295;51.130;6.732;2024-02-04T05:15:37;13.97;;;10.30;;
2570;SDS011;1295;51.130;6.732;2024-02-04T05:18:03;16.23;;;11.60;;
2570;SDS011;1295;51.130;6.732;2024-02-04T05:20:29;14.43;;;11.80;;
2570;SDS011;1295;51.130;6.732;2024-02-04T05:22:55;9.47;;;8.57;;
2570;SDS011;1295;51.130;6.732;2024-02-04T05:25:21;13.67;;;10.80;;
2570;SDS011;1295;51.130;6.732;2024-02-04T05:27:47;12.17;;;9.73;;
2570;SDS011;1295;51.130;6.732;2024-02-04T05:30:13;13.33;;;11.37;;
2570;SDS011;1295;51.130;6.732;2024-02-04T05:32:41;12.77;;;10.57;;
2570;SDS011;1295;51.130;6.732;2024-02-04T05:35:07;13.20;;;10.37;;
2570;SDS011;1295;51.130;6.732;2024-02-04T05:37:33;14.43;;;10.80;;
2570;SDS011;1295;51.130;6.732;2024-02-04T05:39:59;14.07;;;10.20;;
2570;SDS011;1295;51.130;6.732;2024-02-04T05:42:26;15.40;;;9.80;;
2570;SDS011;1295;51.130;6.732;2024-02-04T05:44:51;12.07;;;10.83;;
2570;SDS011;1295;51.130;6.732;2024-02-04T05:47:17;15.03;;;9.97;;
2570;SDS011;1295;51.130;6.732;2024-02-04T05:49:42;18.40;;;11.40;;
2570;SDS011;1295;51.130;6.732;2024-02-04T05:52:08;15.93;;;12.20;;
2570;SDS011;1295;51.130;6.732;2024-02-04T05:54:37;15.57;;;11.93;;
2570;SDS011;1295;51.130;6.732;2024-02-04T05:57:02;10.87;;;9.60;;
2570;SDS011;1295;51.130;6.732;2024-02-04T05:59:28;13.93;;;10.40;;
2570;SDS011;1295;51.130;6.732;2024-02-04T06:01:54;14.53;;;10.57;;
2570;SDS011;1295;51.130;6.732;2024-02-04T06:04:20;12.23;;;9.40;;
2570;SDS011;1295;51.130;6.732;2024-02-04T06:06:46;14.03;;;10.80;;
2570;SDS011;1295;51.130;6.732;2024-02-04T06:09:12;15.53;;;8.70;;
2570;SDS011;1295;51.130;6.732;2024-02-04T06:11:38;15.00;;;9.57;;
2570;SDS011;1295;51.130;6.732;2024-02-04T06:14:04;9.30;;;8.40;;
2570;SDS011;1295;51.130;6.732;2024-02-04T06:16:30;12.70;;;10.10;;
2570;SDS011;1295;51.130;6.732;2024-02-04T06:18:55;11.57;;;9.30;;
2570;SDS011;1295;51.130;6.732;2024-02-04T06:21:21;12.10;;;8.80;;
2570;SDS011;1295;51.130;6.732;2024-02-04T06:23:46;9.70;;;8.70;;
2570;SDS011;1295;51.130;6.732;2024-02-04T06:26:12;9.40;;;8.33;;
2570;SDS011;1295;51.130;6.732;2024-02-04T06:28:38;8.57;;;7.70;;
2570;SDS011;1295;51.130;6.732;2024-02-04T06:31:04;8.67;;;7.83;;
2570;SDS011;1295;51.130;6.732;2024-02-04T06:33:30;10.00;;;8.37;;
2570;SDS011;1295;51.130;6.732;2024-02-04T06:35:56;11.77;;;8.70;;
2570;SDS011;1295;51.130;6.732;2024-02-04T06:38:22;9.47;;;8.30;;
2570;SDS011;1295;51.130;6.732;2024-02-04T06:40:47;8.63;;;7.47;;
2570;SDS011;1295;51.130;6.732;2024-02-04T06:43:14;14.30;;;8.40;;
2570;SDS011;1295;51.130;6.732;2024-02-04T06:45:39;12.10;;;6.47;;
2570;SDS011;1295;51.130;6.732;2024-02-04T06:48:05;8.20;;;7.40;;
2570;SDS011;1295;51.130;6.732;2024-02-04T06:50:31;6.40;;;5.90;;
2570;SDS011;1295;51.130;6.732;2024-02-04T06:52:57;6.40;;;4.50;;
2570;SDS011;1295;51.130;6.732;2024-02-04T06:55:22;5.20;;;4.70;;
2570;SDS011;1295;51.130;6.732;2024-02-04T06:57:48;6.77;;;5.73;;
2570;SDS011;1295;51.130;6.732;2024-02-04T07:00:14;6.50;;;6.03;;
2570;SDS011;1295;51.130;6.732;2024-02-04T07:02:40;6.80;;;6.30;;
2570;SDS011;1295;51.130;6.732;2024-02-04T07:05:06;5.20;;;4.90;;
2570;SDS011;1295;51.130;6.732;2024-02-04T07:07:33;8.33;;;6.07;;
2570;SDS011;1295;51.130;6.732;2024-02-04T07:09:59;6.53;;;5.90;;
2570;SDS011;1295;51.130;6.732;2024-02-04T07:12:24;5.13;;;4.77;;
2570;SDS011;1295;51.130;6.732;2024-02-04T07:14:50;4.50;;;4.20;;
2570;SDS011;1295;51.130;6.732;2024-02-04T07:17:16;3.77;;;3.57;;
2570;SDS011;1295;51.130;6.732;2024-02-04T07:19:41;4.60;;;4.40;;
2570;SDS011;1295;51.130;6.732;2024-02-04T07:22:07;4.27;;;3.97;;
2570;SDS011;1295;51.130;6.732;2024-02-04T07:24:33;4.73;;;4.43;;
2570;SDS011;1295;51.130;6.732;2024-02-04T07:26:58;3.87;;;3.57;;
2570;SDS011;1295;51.130;6.732;2024-02-04T07:29:24;3.80;;;3.60;;
2570;SDS011;1295;51.130;6.732;2024-02-04T07:31:49;4.27;;;3.93;;
2570;SDS011;1295;51.130;6.732;2024-02-04T07:34:15;4.47;;;4.13;;
2570;SDS011;1295;51.130;6.732;2024-02-04T07:36:41;4.60;;;4.40;;
2570;SDS011;1295;51.130;6.732;2024-02-04T07:39:06;4.33;;;4.13;;
2570;SDS011;1295;51.130;6.732;2024-02-04T07:41:32;4.00;;;3.80;;
2570;SDS011;1295;51.130;6.732;2024-02-04T07:43:57;3.97;;;3.77;;
2570;SDS011;1295;51.130;6.732;2024-02-04T07:46:24;4.10;;;3.80;;
2570;SDS011;1295;51.130;6.732;2024-02-04T07:48:50;3.20;;;3.00;;
2570;SDS011;1295;51.130;6.732;2024-02-04T07:51:23;2.60;;;2.50;;
2570;SDS011;1295;51.130;6.732;2024-02-04T07:53:49;2.80;;;2.70;;
2570;SDS011;1295;51.130;6.732;2024-02-04T07:56:15;2.57;;;2.47;;
2570;SDS011;1295;51.130;6.732;2024-02-04T07:58:40;2.93;;;2.83;;
2570;SDS011;1295;51.130;6.732;2024-02-04T08:01:06;3.47;;;3.37;;
2570;SDS011;1295;51.130;6.732;2024-02-04T08:03:32;2.63;;;2.53;;
2570;SDS011;1295;51.130;6.732;2024-02-04T08:05:58;2.57;;;2.47;;
2570;SDS011;1295;51.130;6.732;2024-02-04T08:08:23;2.73;;;2.63;;
2570;SDS011;1295;51.130;6.732;2024-02-04T08:10:49;2.93;;;2.83;;
2570;SDS011;1295;51.130;6.732;2024-02-04T08:13:15;2.67;;;2.57;;
2570;SDS011;1295;51.130;6.732;2024-02-04T08:15:40;5.53;;;4.90;;
2570;SDS011;1295;51.130;6.732;2024-02-04T08:18:06;3.10;;;3.00;;
2570;SDS011;1295;51.130;6.732;2024-02-04T08:20:32;2.93;;;2.73;;
2570;SDS011;1295;51.130;6.732;2024-02-04T08:22:58;3.50;;;3.30;;
2570;SDS011;1295;51.130;6.732;2024-02-04T08:25:23;3.73;;;3.47;;
2570;SDS011;1295;51.130;6.732;2024-02-04T08:27:50;3.20;;;3.00;;
2570;SDS011;1295;51.130;6.732;2024-02-04T08:30:15;2.60;;;2.50;;
2570;SDS011;1295;51.130;6.732;2024-02-04T08:32:41;3.30;;;3.20;;
2570;SDS011;1295;51.130;6.732;2024-02-04T08:35:07;3.90;;;3.70;;
2570;SDS011;1295;51.130;6.732;2024-02-04T08:37:32;2.87;;;2.67;;
2570;SDS011;1295;51.130;6.732;2024-02-04T08:39:58;3.87;;;3.67;;
2570;SDS011;1295;51.130;6.732;2024-02-04T08:42:24;4.00;;;3.70;;
2570;SDS011;1295;51.130;6.732;2024-02-04T08:44:50;4.87;;;4.57;;
2570;SDS011;1295;51.130;6.732;2024-02-04T08:47:16;5.07;;;4.77;;
2570;SDS011;1295;51.130;6.732;2024-02-04T08:49:41;5.23;;;4.93;;
2570;SDS011;1295;51.130;6.732;2024-02-04T08:52:07;5.90;;;5.50;;
2570;SDS011;1295;51.130;6.732;2024-02-04T08:54:33;4.43;;;4.13;;
2570;SDS011;1295;51.130;6.732;2024-02-04T08:56:58;4.77;;;4.53;;
2570;SDS011;1295;51.130;6.732;2024-02-04T08:59:24;3.00;;;2.90;;
2570;SDS011;1295;51.130;6.732;2024-02-04T09:01:50;5.00;;;4.60;;
2570;SDS011;1295;51.130;6.732;2024-02-04T09:04:15;6.73;;;4.93;;
2570;SDS011;1295;51.130;6.732;2024-02-04T09:06:41;6.80;;;6.27;;
2570;SDS011;1295;51.130;6.732;2024-02-04T09:09:06;3.87;;;3.67;;
2570;SDS011;1295;51.130;6.732;2024-02-04T09:11:32;5.63;;;5.23;;
2570;SDS011;1295;51.130;6.732;2024-02-04T09:13:57;5.13;;;4.83;;
2570;SDS011;1295;51.130;6.732;2024-02-04T09:16:24;4.70;;;4.40;;
2570;SDS011;1295;51.130;6.732;2024-02-04T09:18:49;4.50;;;4.20;;
2570;SDS011;1295;51.130;6.732;2024-02-04T09:21:16;4.27;;;3.90;;
2570;SDS011;1295;51.130;6.732;2024-02-04T09:23:41;4.50;;;4.20;;
2570;SDS011;1295;51.130;6.732;2024-02-04T09:26:07;5.00;;;4.70;;
2570;SDS011;1295;51.130;6.732;2024-02-04T09:28:33;6.37;;;3.57;;
2570;SDS011;1295;51.130;6.732;2024-02-04T09:30:59;2.70;;;2.60;;
2570;SDS011;1295;51.130;6.732;2024-02-04T09:33:25;4.53;;;3.40;;
2570;SDS011;1295;51.130;6.732;2024-02-04T09:35:51;4.30;;;4.10;;
2570;SDS011;1295;51.130;6.732;2024-02-04T09:38:17;2.93;;;2.73;;
2570;SDS011;1295;51.130;6.732;2024-02-04T09:40:42;2.83;;;2.63;;
2570;SDS011;1295;51.130;6.732;2024-02-04T09:43:08;3.13;;;2.87;;
2570;SDS011;1295;51.130;6.732;2024-02-04T09:45:35;4.37;;;4.00;;
2570;SDS011;1295;51.130;6.732;2024-02-04T09:48:06;4.83;;;3.27;;
2570;SDS011;1295;51.130;6.732;2024-02-04T09:50:31;4.27;;;3.63;;
2570;SDS011;1295;51.130;6.732;2024-02-04T09:52:58;3.30;;;3.00;;
2570;SDS011;1295;51.130;6.732;2024-02-04T09:55:23;4.53;;;4.20;;
2570;SDS011;1295;51.130;6.732;2024-02-04T09:57:48;3.17;;;3.07;;
2570;SDS011;1295;51.130;6.732;2024-02-04T10:00:15;4.17;;;3.50;;
2570;SDS011;1295;51.130;6.732;2024-02-04T10:02:41;5.70;;;3.80;;
2570;SDS011;1295;51.130;6.732;2024-02-04T10:05:07;5.97;;;4.57;;
2570;SDS011;1295;51.130;6.732;2024-02-04T10:07:33;5.63;;;5.13;;
2570;SDS011;1295;51.130;6.732;2024-02-04T10:09:59;6.60;;;6.10;;
2570;SDS011;1295;51.130;6.732;2024-02-04T10:12:24;4.03;;;3.73;;
2570;SDS011;1295;51.130;6.732;2024-02-04T10:14:50;7.03;;;5.77;;
2570;SDS011;1295;51.130;6.732;2024-02-04T10:17:15;5.90;;;5.40;;
2570;SDS011;1295;51.130;6.732;2024-02-04T10:19:41;6.27;;;5.03;;
2570;SDS011;1295;51.130;6.732;2024-02-04T10:22:07;5.03;;;4.63;;
2570;SDS011;1295;51.130;6.732;2024-02-04T10:24:32;6.40;;;5.90;;
2570;SDS011;1295;51.130;6.732;2024-02-04T10:26:58;6.50;;;6.10;;
2570;SDS011;1295;51.130;6.732;2024-02-04T10:29:24;5.03;;;4.63;;
2570;SDS011;1295;51.130;6.732;2024-02-04T10:31:52;7.27;;;6.77;;
2570;SDS011;1295;51.130;6.732;2024-02-04T10:34:18;5.73;;;4.87;;
2570;SDS011;1295;51.130;6.732;2024-02-04T10:36:43;6.40;;;5.70;;
2570;SDS011;1295;51.130;6.732;2024-02-04T10:39:09;5.83;;;5.23;;
2570;SDS011;1295;51.130;6.732;2024-02-04T10:41:34;9.00;;;6.07;;
2570;SDS011;1295;51.130;6.732;2024-02-04T10:44:02;6.47;;;5.63;;
2570;SDS011;1295;51.130;6.732;2024-02-04T10:46:30;6.57;;;4.77;;
2570;SDS011;1295;51.130;6.732;2024-02-04T10:48:55;5.90;;;5.50;;
2570;SDS011;1295;51.130;6.732;2024-02-04T10:51:22;5.73;;;5.33;;
2570;SDS011;1295;51.130;6.732;2024-02-04T10:53:46;3.83;;;3.53;;
2570;SDS011;1295;51.130;6.732;2024-02-04T10:56:22;7.10;;;6.50;;
2570;SDS011;1295;51.130;6.732;2024-02-04T10:58:46;7.07;;;6.53;;
2570;SDS011;1295;51.130;6.732;2024-02-04T11:01:11;6.33;;;5.83;;
2570;SDS011;1295;51.130;6.732;2024-02-04T11:03:38;16.53;;;6.63;;
2570;SDS011;1295;51.130;6.732;2024-02-04T11:06:03;5.20;;;4.90;;
2570;SDS011;1295;51.130;6.732;2024-02-04T11:08:30;6.00;;;5.47;;
2570;SDS011;1295;51.130;6.732;2024-02-04T11:10:56;5.87;;;5.50;;
2570;SDS011;1295;51.130;6.732;2024-02-04T11:13:22;7.10;;;5.73;;
2570;SDS011;1295;51.130;6.732;2024-02-04T11:15:48;5.47;;;5.03;;
2570;SDS011;1295;51.130;6.732;2024-02-04T11:18:20;5.70;;;5.20;;
2570;SDS011;1295;51.130;6.732;2024-02-04T11:20:53;5.17;;;4.87;;
2570;SDS011;1295;51.130;6.732;2024-02-04T11:23:24;5.40;;;5.10;;
2570;SDS011;1295;51.130;6.732;2024-02-04T11:25:52;6.10;;;5.60;;
2570;SDS011;1295;51.130;6.732;2024-02-04T11:28:16;9.73;;;5.37;;
2570;SDS011;1295;51.130;6.732;2024-02-04T11:30:43;6.60;;;6.00;;
2570;SDS011;1295;51.130;6.732;2024-02-04T11:33:09;4.40;;;4.20;;
2570;SDS011;1295;51.130;6.732;2024-02-04T11:35:34;6.23;;;5.30;;
2570;SDS011;1295;51.130;6.732;2024-02-04T11:38:00;7.17;;;4.70;;
2570;SDS011;1295;51.130;6.732;2024-02-04T11:40:33;4.27;;;3.90;;
2570;SDS011;1295;51.130;6.732;2024-02-04T11:45:29;5.10;;;4.73;;
2570;SDS011;1295;51.130;6.732;2024-02-04T11:48:00;6.10;;;5.70;;
2570;SDS011;1295;51.130;6.732;2024-02-04T11:50:28;4.33;;;4.03;;
2570;SDS011;1295;51.130;6.732;2024-02-04T11:53:01;7.00;;;5.77;;
2570;SDS011;1295;51.130;6.732;2024-02-04T11:55:21;5.37;;;5.07;;
2570;SDS011;1295;51.130;6.732;2024-02-04T11:57:45;6.47;;;5.97;;
2570;SDS011;1295;51.130;6.732;2024-02-04T12:00:12;5.67;;;5.27;;
2570;SDS011;1295;51.130;6.732;2024-02-04T12:02:39;5.73;;;5.23;;
2570;SDS011;1295;51.130;6.732;2024-02-04T12:05:04;8.00;;;7.30;;
2570;SDS011;1295;51.130;6.732;2024-02-04T12:07:30;6.10;;;5.50;;
2570;SDS011;1295;51.130;6.732;2024-02-04T12:09:56;7.20;;;6.13;;
2570;SDS011;1295;51.130;6.732;2024-02-04T12:12:22;4.17;;;3.90;;
2570;SDS011;1295;51.130;6.732;2024-02-04T12:14:47;4.40;;;4.10;;
2570;SDS011;1295;51.130;6.732;2024-02-04T12:17:13;7.97;;;5.97;;
2570;SDS011;1295;51.130;6.732;2024-02-04T12:19:39;6.90;;;5.13;;
2570;SDS011;1295;51.130;6.732;2024-02-04T12:22:05;4.63;;;4.23;;
2570;SDS011;1295;51.130;6.732;2024-02-04T12:24:30;4.93;;;4.53;;
2570;SDS011;1295;51.130;6.732;2024-02-04T12:26:55;4.80;;;4.60;;
2570;SDS011;1295;51.130;6.732;2024-02-04T12:29:21;4.50;;;4.30;;
2570;SDS011;1295;51.130;6.732;2024-02-04T12:31:47;4.50;;;4.10;;
2570;SDS011;1295;51.130;6.732;2024-02-04T12:34:12;4.33;;;4.13;;
2570;SDS011;1295;51.130;6.732;2024-02-04T12:36:38;5.00;;;4.70;;
2570;SDS011;1295;51.130;6.732;2024-02-04T12:39:04;4.30;;;3.90;;
2570;SDS011;1295;51.130;6.732;2024-02-04T12:41:29;4.00;;;3.70;;
2570;SDS011;1295;51.130;6.732;2024-02-04T12:43:56;3.40;;;3.20;;
2570;SDS011;1295;51.130;6.732;2024-02-04T12:46:21;3.37;;;3.17;;
2570;SDS011;1295;51.130;6.732;2024-02-04T12:48:51;3.43;;;2.63;;
2570;SDS011;1295;51.130;6.732;2024-02-04T12:51:23;3.00;;;2.90;;
2570;SDS011;1295;51.130;6.732;2024-02-04T12:53:41;2.57;;;2.37;;
2570;SDS011;1295;51.130;6.732;2024-02-04T12:56:07;2.83;;;2.63;;
2570;SDS011;1295;51.130;6.732;2024-02-04T12:58:41;2.60;;;2.50;;
2570;SDS011;1295;51.130;6.732;2024-02-04T13:00:59;3.90;;;3.70;;
2570;SDS011;1295;51.130;6.732;2024-02-04T13:03:25;4.13;;;3.77;;
2570;SDS011;1295;51.130;6.732;2024-02-04T13:05:51;3.40;;;3.10;;
2570;SDS011;1295;51.130;6.732;2024-02-04T13:08:18;3.90;;;3.70;;
2570;SDS011;1295;51.130;6.732;2024-02-04T13:10:42;5.23;;;5.03;;
2570;SDS011;1295;51.130;6.732;2024-02-04T13:13:08;4.40;;;4.20;;
2570;SDS011;1295;51.130;6.732;2024-02-04T13:15:37;6.17;;;5.63;;
2570;SDS011;1295;51.130;6.732;2024-02-04T13:18:02;7.17;;;6.77;;
2570;SDS011;1295;51.130;6.732;2024-02-04T13:20:28;5.30;;;5.00;;
2570;SDS011;1295;51.130;6.732;2024-02-04T13:22:54;5.47;;;5.17;;
2570;SDS011;1295;51.130;6.732;2024-02-04T13:25:21;6.83;;;6.17;;
2570;SDS011;1295;51.130;6.732;2024-02-04T13:27:46;4.93;;;4.73;;
2570;SDS011;1295;51.130;6.732;2024-02-04T13:30:12;5.80;;;5.50;;
2570;SDS011;1295;51.130;6.732;2024-02-04T13:32:38;6.83;;;6.23;;
2570;SDS011;1295;51.130;6.732;2024-02-04T13:35:03;5.73;;;5.33;;
2570;SDS011;1295;51.130;6.732;2024-02-04T13:37:31;7.20;;;6.80;;
2570;SDS011;1295;51.130;6.732;2024-02-04T13:39:56;5.27;;;4.87;;
2570;SDS011;1295;51.130;6.732;2024-02-04T13:42:22;6.33;;;5.87;;
2570;SDS011;1295;51.130;6.732;2024-02-04T13:44:47;5.53;;;5.23;;
2570;SDS011;1295;51.130;6.732;2024-02-04T13:47:14;5.40;;;5.10;;
2570;SDS011;1295;51.130;6.732;2024-02-04T13:49:40;5.13;;;4.73;;
2570;SDS011;1295;51.130;6.732;2024-02-04T13:52:06;4.40;;;4.20;;
2570;SDS011;1295;51.130;6.732;2024-02-04T13:54:32;4.80;;;4.50;;
2570;SDS011;1295;51.130;6.732;2024-02-04T13:56:58;4.00;;;3.70;;
2570;SDS011;1295;51.130;6.732;2024-02-04T13:59:24;2.80;;;2.67;;
2570;SDS011;1295;51.130;6.732;2024-02-04T14:01:50;4.30;;;4.00;;
2570;SDS011;1295;51.130;6.732;2024-02-04T14:04:15;4.17;;;3.77;;
2570;SDS011;1295;51.130;6.732;2024-02-04T14:06:42;3.90;;;3.70;;
2570;SDS011;1295;51.130;6.732;2024-02-04T14:09:07;2.77;;;2.57;;
2570;SDS011;1295;51.130;6.732;2024-02-04T14:11:33;2.90;;;2.80;;
2570;SDS011;1295;51.130;6.732;2024-02-04T14:13:58;2.50;;;2.40;;
2570;SDS011;1295;51.130;6.732;2024-02-04T14:16:25;2.60;;;2.50;;
2570;SDS011;1295;51.130;6.732;2024-02-04T14:18:50;3.73;;;2.77;;
2570;SDS011;1295;51.130;6.732;2024-02-04T14:21:16;2.80;;;2.00;;
2570;SDS011;1295;51.130;6.732;2024-02-04T14:23:42;2.73;;;2.63;;
2570;SDS011;1295;51.130;6.732;2024-02-04T14:26:15;3.30;;;3.10;;
2570;SDS011;1295;51.130;6.732;2024-02-04T14:28:34;2.07;;;1.97;;
2570;SDS011;1295;51.130;6.732;2024-02-04T14:31:00;2.77;;;2.67;;
2570;SDS011;1295;51.130;6.732;2024-02-04T14:33:25;2.63;;;2.20;;
2570;SDS011;1295;51.130;6.732;2024-02-04T14:35:51;3.17;;;2.80;;
2570;SDS011;1295;51.130;6.732;2024-02-04T14:38:17;3.70;;;2.40;;
2570;SDS011;1295;51.130;6.732;2024-02-04T14:40:43;8.53;;;2.87;;
2570;SDS011;1295;51.130;6.732;2024-02-04T14:43:09;2.53;;;2.43;;
2570;SDS011;1295;51.130;6.732;2024-02-04T14:45:35;2.70;;;2.30;;
2570;SDS011;1295;51.130;6.732;2024-02-04T14:48:01;2.43;;;2.33;;
2570;SDS011;1295;51.130;6.732;2024-02-04T14:50:26;2.33;;;2.20;;
2570;SDS011;1295;51.130;6.732;2024-02-04T14:52:52;2.37;;;2.27;;
2570;SDS011;1295;51.130;6.732;2024-02-04T14:55:17;2.27;;;2.07;;
2570;SDS011;1295;51.130;6.732;2024-02-04T14:57:43;3.10;;;2.90;;
2570;SDS011;1295;51.130;6.732;2024-02-04T15:00:09;4.30;;;2.77;;
2570;SDS011;1295;51.130;6.732;2024-02-04T15:02:36;1.40;;;1.40;;
2570;SDS011;1295;51.130;6.732;2024-02-04T15:05:17;2.20;;;1.40;;
2570;SDS011;1295;51.130;6.732;2024-02-04T15:07:42;2.30;;;2.20;;